New Shoreham, Rhode Island
Current Conditions -  °F | °C
As of 12:55 PM on Monday 24 Nov 2014 (Local Time) from KBID Reporting Station
Overcast Overcast  
Wind Chill: 63°   Ceiling: 1600
Heat Index: 63°   Visibility: 3mi
Dew Point: 57°   Wind: 18mph
Humidity: 82%   Direction: 200°SSW
Pressure: 29.7"   Gusts: 31mph
Location:  41.1768°N, 71.5785°W
Report Text: KBID 241755Z AUTO 20016G27KT 3SM SCT008 OVC016 17/14 A2970 RMK AO1 60019 57017
Loading
Personal Weather Stations






























Interactive Weather Map New forecast layout! Learn more

10-Day Weather Forecast

Advertisements
Track Severe Weather on mobile